Time;durP1;ratioP1;P1;durP2;ratioP2;P2;SDS_P1;SDS_P2;PMS_P1;PMS_P2;Temp;Humidity;BMP_temperature;BMP_pressure;BME280_temperature;BME280_humidity;BME280_pressure;Samples;Min_cycle;Max_cycle;Signal;HPM_P1;HPM_P2
2023/07/10 00:01:26;;;;;;;;;;;;;;;18.39;70.88;101194.59;107627;1251;97815;-61
2023/07/10 00:03:55;;;;;;;;;;;;;;;18.33;72.64;101195.95;107594;1251;112048;-62
2023/07/10 00:06:23;;;;;;;;;;;;;;;18.27;72.40;101194.70;107605;1254;109891;-62
2023/07/10 00:08:52;;;;;;;;;;;;;;;18.24;72.09;101190.98;107583;1254;108491;-62
2023/07/10 00:11:24;;;;;;;;;;;;;;;18.24;72.05;101193.34;107590;1256;98017;-62
2023/07/10 00:13:52;;;;;;;;;;;;;;;18.25;72.26;101194.85;107483;1252;97908;-60
2023/07/10 00:16:21;;;;;;;;;;;;;;;18.23;72.96;101195.51;107532;1250;112318;-60
2023/07/10 00:18:49;;;;;;;;;;;;;;;18.19;72.97;101195.91;107575;1251;108843;-61
2023/07/10 00:21:17;;;;;;;;;;;;;;;18.18;72.91;101197.75;107557;1254;107865;-62
2023/07/10 00:23:46;;;;;;;;;;;;;;;18.17;72.73;101192.77;107645;1251;97934;-61
2023/07/10 00:26:17;;;;;;;;;;;;;;;18.20;72.83;101194.03;107551;1250;97710;-62
2023/07/10 00:28:47;;;;;;;;;;;;;;;18.23;73.13;101191.67;107608;1251;111736;-61
2023/07/10 00:31:15;;;;;;;;;;;;;;;18.26;73.83;101191.99;107596;1251;111169;-62
2023/07/10 00:33:47;;;;;;;;;;;;;;;18.22;74.22;101190.02;107632;1251;106933;-61
2023/07/10 00:36:29;;;;;;;;;;;;;;;18.15;73.58;101187.73;107501;1254;97838;-63
2023/07/10 00:39:01;;;;;;;;;;;;;;;18.14;73.37;101189.36;107609;1251;97841;-61
2023/07/10 00:41:32;;;;;;;;;;;;;;;18.15;73.45;101181.66;107555;1251;112155;-61
2023/07/10 00:44:03;;;;;;;;;;;;;;;18.18;73.55;101181.70;107559;1251;109467;-60
2023/07/10 00:46:34;;;;;;;;;;;;;;;18.21;73.67;101178.34;107562;1251;108002;-65
2023/07/10 00:49:22;;;;;;;;;;;;;;;18.22;73.40;101179.25;107569;1252;97906;-63
2023/07/10 00:52:10;;;;;;;;;;;;;;;18.21;73.25;101174.83;107615;1253;97844;-62
2023/07/10 00:54:40;;;;;;;;;;;;;;;18.22;73.51;101171.87;107200;1251;111926;-60
2023/07/10 00:57:22;;;;;;;;;;;;;;;18.24;73.35;101179.72;107623;1252;108921;-65
2023/07/10 00:59:51;;;;;;;;;;;;;;;18.26;73.05;101180.66;107647;1251;108512;-62
2023/07/10 01:02:20;;;;;;;;;;;;;;;18.24;73.88;101173.21;107609;1251;97723;-61
2023/07/10 01:04:55;;;;;;;;;;;;;;;18.21;73.55;101179.80;107600;1251;97879;-59
2023/07/10 01:07:25;;;;;;;;;;;;;;;18.19;73.67;101171.95;107571;1251;112078;-61
2023/07/10 01:09:57;;;;;;;;;;;;;;;18.20;73.81;101172.08;107544;1254;109428;-62
2023/07/10 01:12:26;;;;;;;;;;;;;;;18.21;73.77;101172.55;107623;1253;108652;-62
2023/07/10 01:14:55;;;;;;;;;;;;;;;18.20;73.63;101175.90;107547;1251;97927;-61
2023/07/10 01:17:25;;;;;;;;;;;;;;;18.17;73.73;101175.66;107612;1251;97957;-61
2023/07/10 01:19:57;;;;;;;;;;;;;;;18.15;73.64;101179.14;107673;1251;110294;-63
2023/07/10 01:22:25;;;;;;;;;;;;;;;18.11;73.52;101185.39;107588;1253;109356;-61
2023/07/10 01:24:53;;;;;;;;;;;;;;;18.08;73.42;101190.51;107590;1254;107902;-62
2023/07/10 01:27:22;;;;;;;;;;;;;;;18.05;73.51;101190.31;107626;1251;97819;-62
2023/07/10 01:29:56;;;;;;;;;;;;;;;18.03;73.70;101187.77;107635;1254;97953;-61
2023/07/10 01:32:27;;;;;;;;;;;;;;;18.03;73.94;101185.01;107621;1254;111060;-61
2023/07/10 01:34:57;;;;;;;;;;;;;;;18.04;73.82;101189.90;107620;1251;109408;-63
2023/07/10 01:37:26;;;;;;;;;;;;;;;18.03;73.62;101193.45;107642;1251;107632;-62
2023/07/10 01:39:54;;;;;;;;;;;;;;;18.02;73.85;101189.70;107540;1251;97579;-61
2023/07/10 01:42:23;;;;;;;;;;;;;;;18.03;74.21;101183.27;107589;1251;97862;-60
2023/07/10 01:44:51;;;;;;;;;;;;;;;18.03;74.16;101184.90;107598;1252;113502;-63
2023/07/10 01:47:19;;;;;;;;;;;;;;;18.05;74.02;101192.59;107627;1254;110594;-61
2023/07/10 01:49:55;;;;;;;;;;;;;;;18.07;73.73;101185.92;107533;1253;107701;-61
2023/07/10 01:52:24;;;;;;;;;;;;;;;18.06;73.95;101183.95;107610;1251;97931;-60
2023/07/10 01:54:51;;;;;;;;;;;;;;;18.05;73.41;101184.70;107612;1250;97809;-60
2023/07/10 01:57:24;;;;;;;;;;;;;;;18.05;73.34;101182.80;107560;1254;112279;-59
2023/07/10 01:59:52;;;;;;;;;;;;;;;18.06;73.42;101189.12;107567;1250;109497;-63
2023/07/10 02:02:20;;;;;;;;;;;;;;;18.06;73.37;101191.95;107620;1251;108283;-61
2023/07/10 02:04:49;;;;;;;;;;;;;;;18.06;73.46;101199.46;107572;1253;98060;-60
2023/07/10 02:07:17;;;;;;;;;;;;;;;18.05;73.53;101205.19;107581;1251;97829;-60
2023/07/10 02:09:45;;;;;;;;;;;;;;;18.02;74.11;101210.39;107626;1251;113306;-60
2023/07/10 02:12:13;;;;;;;;;;;;;;;17.97;73.86;101210.75;107626;1253;110040;-61
2023/07/10 02:14:41;;;;;;;;;;;;;;;17.94;73.93;101210.31;107600;1256;108666;-61
2023/07/10 02:17:09;;;;;;;;;;;;;;;17.93;73.85;101207.90;107564;1253;97883;-60
2023/07/10 02:19:37;;;;;;;;;;;;;;;17.93;73.79;101207.39;107618;1251;97794;-63
2023/07/10 02:22:06;;;;;;;;;;;;;;;17.94;73.88;101218.35;107632;1251;114309;-66
2023/07/10 02:24:41;;;;;;;;;;;;;;;17.95;73.76;101221.92;107696;1251;109062;-66
2023/07/10 02:27:13;;;;;;;;;;;;;;;17.95;73.56;101218.81;107555;1251;108490;-64
2023/07/10 02:29:44;;;;;;;;;;;;;;;17.99;73.88;101221.63;107602;1251;97755;-65
2023/07/10 02:32:16;;;;;;;;;;;;;;;17.98;73.43;101222.03;107527;1254;97902;-64
2023/07/10 02:34:45;;;;;;;;;;;;;;;18.03;73.55;101230.30;107549;1251;113607;-64
2023/07/10 02:37:20;;;;;;;;;;;;;;;18.07;73.44;101227.42;107669;1251;109052;-63
2023/07/10 02:39:52;;;;;;;;;;;;;;;18.10;73.23;101233.04;107582;1250;107881;-63
2023/07/10 02:42:20;;;;;;;;;;;;;;;18.13;73.55;101239.45;107525;1251;97817;-61
2023/07/10 02:44:48;;;;;;;;;;;;;;;18.14;73.73;101239.70;107621;1251;97855;-62
2023/07/10 02:47:16;;;;;;;;;;;;;;;18.16;73.83;101238.05;107654;1251;111398;-62
2023/07/10 02:49:45;;;;;;;;;;;;;;;18.17;73.73;101232.84;107611;1251;109944;-60
2023/07/10 02:52:13;;;;;;;;;;;;;;;18.17;73.47;101235.77;107591;1251;108411;-61
2023/07/10 02:54:41;;;;;;;;;;;;;;;18.18;73.56;101240.86;107634;1250;97822;-61
2023/07/10 02:57:09;;;;;;;;;;;;;;;18.20;73.79;101243.46;107647;1250;97908;-60
2023/07/10 02:59:37;;;;;;;;;;;;;;;18.23;73.83;101233.61;107617;1251;111367;-63
2023/07/10 03:02:05;;;;;;;;;;;;;;;18.27;73.72;101233.70;107595;1251;109377;-61
2023/07/10 03:04:33;;;;;;;;;;;;;;;18.33;73.66;101236.86;107507;1254;109455;-61
2023/07/10 03:07:02;;;;;;;;;;;;;;;18.36;73.66;101231.05;107581;1254;97826;-61
2023/07/10 03:09:31;;;;;;;;;;;;;;;18.40;73.95;101236.60;107590;1253;98074;-61
2023/07/10 03:11:59;;;;;;;;;;;;;;;18.42;73.46;101236.73;107657;1254;110426;-62
2023/07/10 03:14:27;;;;;;;;;;;;;;;18.46;73.51;101235.66;107601;1254;110144;-61
2023/07/10 03:16:55;;;;;;;;;;;;;;;18.49;73.85;101242.15;107600;1253;108688;-61
2023/07/10 03:19:23;;;;;;;;;;;;;;;18.48;73.73;101237.90;107616;1253;97809;-61
2023/07/10 03:21:51;;;;;;;;;;;;;;;18.53;73.60;101247.45;107620;1253;97841;-61
2023/07/10 03:24:19;;;;;;;;;;;;;;;18.59;73.37;101251.89;107624;1253;110336;-62
2023/07/10 03:26:47;;;;;;;;;;;;;;;18.66;73.09;101247.38;107595;1251;109991;-61
2023/07/10 03:29:16;;;;;;;;;;;;;;;18.74;73.54;101246.08;107631;1251;106562;-62
2023/07/10 03:31:44;;;;;;;;;;;;;;;18.77;73.38;101246.81;107597;1254;97710;-60
2023/07/10 03:34:13;;;;;;;;;;;;;;;18.85;73.33;101251.63;107669;1254;97883;-60
2023/07/10 03:36:41;;;;;;;;;;;;;;;18.93;72.99;101255.23;107639;1254;111434;-60
2023/07/10 03:39:12;;;;;;;;;;;;;;;19.03;72.66;101251.91;107610;1251;110149;-61
2023/07/10 03:41:40;;;;;;;;;;;;;;;19.12;72.50;101249.53;107670;1255;108141;-61
2023/07/10 03:44:08;;;;;;;;;;;;;;;19.22;72.15;101249.80;107569;1251;98483;-63
2023/07/10 03:46:36;;;;;;;;;;;;;;;19.31;71.74;101254.10;107599;1254;97841;-62
2023/07/10 03:49:05;;;;;;;;;;;;;;;19.37;71.30;101250.39;107595;1254;111403;-62
2023/07/10 03:51:33;;;;;;;;;;;;;;;19.36;70.55;101253.14;107684;1251;109497;-60
2023/07/10 03:54:01;;;;;;;;;;;;;;;19.30;70.24;101253.59;107640;1251;108812;-61
2023/07/10 03:56:29;;;;;;;;;;;;;;;19.29;70.40;101256.88;107552;1256;97924;-62
2023/07/10 03:58:57;;;;;;;;;;;;;;;19.29;70.36;101260.24;107611;1253;97836;-61
2023/07/10 04:01:25;;;;;;;;;;;;;;;19.30;70.34;101267.16;107608;1254;113104;-63
2023/07/10 04:03:54;;;;;;;;;;;;;;;19.31;70.44;101269.89;107657;1254;109681;-62
2023/07/10 04:06:22;;;;;;;;;;;;;;;19.35;70.55;101275.33;107575;1254;107895;-61
2023/07/10 04:08:50;;;;;;;;;;;;;;;19.40;70.65;101275.59;107594;1254;97899;-62
2023/07/10 04:11:20;;;;;;;;;;;;;;;19.34;70.32;101274.77;107637;1251;97844;-62
2023/07/10 04:13:49;;;;;;;;;;;;;;;19.31;70.19;101273.48;107625;1251;110393;-67
2023/07/10 04:16:24;;;;;;;;;;;;;;;19.32;70.32;101276.45;107612;1251;109564;-65
2023/07/10 04:18:53;;;;;;;;;;;;;;;19.33;70.36;101269.92;107580;1251;107983;-63
2023/07/10 04:21:31;;;;;;;;;;;;;;;19.34;70.42;101268.44;107572;1254;97829;-63
2023/07/10 04:23:59;;;;;;;;;;;;;;;19.35;70.43;101271.01;107625;1252;97703;-63
2023/07/10 04:26:29;;;;;;;;;;;;;;;19.36;70.35;101269.60;107597;1253;111682;-62
2023/07/10 04:28:59;;;;;;;;;;;;;;;19.37;70.51;101271.16;107564;1253;109316;-62
2023/07/10 04:31:27;;;;;;;;;;;;;;;19.36;70.56;101274.59;107629;1251;108670;-62
2023/07/10 04:33:55;;;;;;;;;;;;;;;19.38;70.60;101265.42;107560;1256;98346;-61
2023/07/10 04:36:24;;;;;;;;;;;;;;;19.40;70.55;101269.37;107579;1251;97700;-62
2023/07/10 04:38:52;;;;;;;;;;;;;;;19.43;70.47;101269.01;107576;1251;111402;-61
2023/07/10 04:41:21;;;;;;;;;;;;;;;19.50;70.32;101272.18;107564;1254;109762;-61
2023/07/10 04:43:49;;;;;;;;;;;;;;;19.55;70.22;101266.52;107628;1253;108098;-63
2023/07/10 04:46:18;;;;;;;;;;;;;;;19.57;70.18;101262.52;107622;1253;97723;-61
2023/07/10 04:48:46;;;;;;;;;;;;;;;19.55;70.21;101266.30;107639;1251;97831;-60
2023/07/10 04:51:16;;;;;;;;;;;;;;;19.53;70.46;101270.42;107590;1250;111583;-63
2023/07/10 04:53:44;;;;;;;;;;;;;;;19.50;70.56;101273.14;107609;1256;109563;-61
2023/07/10 04:56:14;;;;;;;;;;;;;;;19.49;70.95;101276.45;107568;1251;107923;-60
2023/07/10 04:58:44;;;;;;;;;;;;;;;19.49;70.99;101275.02;107556;1251;97804;-61
2023/07/10 05:01:12;;;;;;;;;;;;;;;19.49;71.22;101277.41;107588;1255;97700;-61
2023/07/10 05:03:41;;;;;;;;;;;;;;;19.48;71.36;101276.81;107581;1251;110912;-63
2023/07/10 05:06:09;;;;;;;;;;;;;;;19.50;71.30;101277.47;107572;1251;109207;-61
2023/07/10 05:08:37;;;;;;;;;;;;;;;19.51;71.06;101280.73;107566;1251;107614;-63
2023/07/10 05:11:05;;;;;;;;;;;;;;;19.57;70.75;101280.83;107545;1251;97720;-62
2023/07/10 05:13:33;;;;;;;;;;;;;;;19.65;70.59;101274.62;107556;1250;97918;-63
2023/07/10 05:16:02;;;;;;;;;;;;;;;19.71;70.83;101275.52;107562;1251;112118;-62
2023/07/10 05:18:30;;;;;;;;;;;;;;;19.78;70.42;101277.95;107577;1251;109371;-62
2023/07/10 05:20:59;;;;;;;;;;;;;;;19.83;70.22;101282.79;107635;1255;107436;-63
2023/07/10 05:23:27;;;;;;;;;;;;;;;19.88;69.80;101281.37;107583;1254;97822;-62
2023/07/10 05:25:56;;;;;;;;;;;;;;;19.91;69.42;101281.14;107582;1253;97716;-61
2023/07/10 05:28:25;;;;;;;;;;;;;;;19.96;69.44;101283.27;107597;1251;111233;-62
2023/07/10 05:30:54;;;;;;;;;;;;;;;20.03;69.59;101289.01;107589;1251;108599;-61
2023/07/10 05:33:23;;;;;;;;;;;;;;;20.10;69.49;101290.04;107643;1252;107158;-62
2023/07/10 05:35:52;;;;;;;;;;;;;;;20.12;69.18;101289.14;107609;1251;97822;-63
2023/07/10 05:38:22;;;;;;;;;;;;;;;20.15;69.23;101286.45;107624;1254;97914;-61
2023/07/10 05:40:50;;;;;;;;;;;;;;;20.21;69.15;101296.75;107562;1256;111627;-62
2023/07/10 05:43:18;;;;;;;;;;;;;;;20.22;68.63;101298.33;107639;1254;110652;-62
2023/07/10 05:45:47;;;;;;;;;;;;;;;20.28;68.62;101293.48;107577;1254;108239;-63
2023/07/10 05:48:16;;;;;;;;;;;;;;;20.35;68.41;101293.04;107603;1251;97871;-62
2023/07/10 05:50:47;;;;;;;;;;;;;;;20.40;68.19;101291.65;107576;1251;97835;-61
2023/07/10 05:53:15;;;;;;;;;;;;;;;20.45;67.94;101288.44;107629;1256;111930;-63
2023/07/10 05:55:44;;;;;;;;;;;;;;;20.49;67.51;101291.64;107626;1254;108956;-61
2023/07/10 05:58:13;;;;;;;;;;;;;;;20.53;67.62;101291.52;107595;1253;108141;-61
2023/07/10 06:00:42;;;;;;;;;;;;;;;20.58;67.45;101288.90;107617;1254;97665;-61
2023/07/10 06:03:11;;;;;;;;;;;;;;;20.64;67.57;101288.64;107629;1254;97655;-61
2023/07/10 06:05:39;;;;;;;;;;;;;;;20.69;67.08;101286.84;107586;1256;110012;-61
2023/07/10 06:08:09;;;;;;;;;;;;;;;20.74;67.16;101289.92;107591;1254;110945;-61
2023/07/10 06:10:37;;;;;;;;;;;;;;;20.79;66.87;101289.80;107594;1254;108760;-64
2023/07/10 06:13:05;;;;;;;;;;;;;;;20.84;66.55;101288.98;107594;1253;97816;-62
2023/07/10 06:15:32;;;;;;;;;;;;;;;20.90;66.79;101286.22;107612;1255;97818;-62
2023/07/10 06:18:01;;;;;;;;;;;;;;;20.97;66.44;101285.59;107606;1254;113001;-63
2023/07/10 06:20:32;;;;;;;;;;;;;;;21.04;66.43;101280.02;107647;1254;109845;-61
2023/07/10 06:23:00;;;;;;;;;;;;;;;21.12;66.41;101277.48;107609;1255;109024;-62
2023/07/10 06:25:30;;;;;;;;;;;;;;;21.21;65.73;101275.15;107538;1254;97841;-62
2023/07/10 06:27:58;;;;;;;;;;;;;;;21.31;65.30;101271.80;107588;1254;97709;-60
2023/07/10 06:30:26;;;;;;;;;;;;;;;21.41;65.15;101271.27;107603;1254;111173;-64
2023/07/10 06:32:57;;;;;;;;;;;;;;;21.49;64.84;101266.27;107575;1256;110052;-62
2023/07/10 06:35:25;;;;;;;;;;;;;;;21.57;64.05;101267.04;107623;1254;108165;-63
2023/07/10 06:37:54;;;;;;;;;;;;;;;21.64;63.33;101260.79;107586;1254;97835;-62
2023/07/10 06:40:22;;;;;;;;;;;;;;;21.67;62.51;101262.42;107676;1254;97806;-62
2023/07/10 06:42:51;;;;;;;;;;;;;;;21.72;63.00;101262.98;107614;1254;111095;-62
2023/07/10 06:45:21;;;;;;;;;;;;;;;21.77;62.53;101260.73;107599;1254;109056;-62
2023/07/10 06:47:50;;;;;;;;;;;;;;;21.83;62.56;101262.30;107660;1251;109388;-61
2023/07/10 06:50:19;;;;;;;;;;;;;;;21.90;61.80;101261.84;107531;1251;97879;-62
2023/07/10 06:52:47;;;;;;;;;;;;;;;21.97;61.70;101259.45;107603;1254;97681;-63
2023/07/10 06:55:17;;;;;;;;;;;;;;;22.04;60.95;101257.42;107619;1254;111212;-61
2023/07/10 06:57:45;;;;;;;;;;;;;;;22.13;59.98;101255.67;107570;1255;108329;-63
2023/07/10 07:00:13;;;;;;;;;;;;;;;22.21;59.76;101259.30;107621;1254;108575;-62
2023/07/10 07:02:42;;;;;;;;;;;;;;;22.27;59.73;101256.13;107630;1254;98367;-61
2023/07/10 07:05:11;;;;;;;;;;;;;;;22.34;58.65;101258.27;107645;1254;97827;-61
2023/07/10 07:07:42;;;;;;;;;;;;;;;22.38;57.17;101261.82;107631;1255;113066;-64
2023/07/10 07:10:15;;;;;;;;;;;;;;;22.44;56.92;101261.57;107574;1254;109958;-61
2023/07/10 07:12:48;;;;;;;;;;;;;;;22.50;57.50;101258.52;107565;1256;108004;-66
2023/07/10 07:15:18;;;;;;;;;;;;;;;22.57;57.22;101258.17;107569;1255;97824;-62
2023/07/10 07:17:46;;;;;;;;;;;;;;;22.63;57.10;101260.68;107581;1256;97713;-63
2023/07/10 07:20:15;;;;;;;;;;;;;;;22.71;56.92;101264.09;107633;1254;111795;-64
2023/07/10 07:22:43;;;;;;;;;;;;;;;22.77;57.02;101263.98;107642;1256;109198;-64
2023/07/10 07:25:13;;;;;;;;;;;;;;;22.84;56.73;101260.64;107586;1254;107433;-64
2023/07/10 07:27:44;;;;;;;;;;;;;;;22.91;56.03;101261.75;107507;1254;98044;-62
2023/07/10 07:30:12;;;;;;;;;;;;;;;23.02;54.46;101257.22;107528;1256;97692;-62
2023/07/10 07:32:40;;;;;;;;;;;;;;;23.13;53.97;101252.90;107605;1252;110295;-60
2023/07/10 07:35:08;;;;;;;;;;;;;;;23.25;53.08;101253.71;107604;1254;110400;-60
2023/07/10 07:37:37;;;;;;;;;;;;;;;23.36;52.52;101251.57;107556;1256;107132;-61
2023/07/10 07:40:06;;;;;;;;;;;;;;;23.44;52.18;101250.81;107475;1254;97844;-60
2023/07/10 07:42:34;;;;;;;;;;;;;;;23.49;52.29;101249.05;107609;1253;97902;-61
2023/07/10 07:45:02;;;;;;;;;;;;;;;23.53;51.86;101249.30;107663;1254;110837;-61
2023/07/10 07:47:31;;;;;;;;;;;;;;;23.59;51.45;101247.15;107634;1256;109874;-62
2023/07/10 07:49:59;;;;;;;;;;;;;;;23.65;51.11;101245.04;107563;1251;107900;-61
2023/07/10 07:52:28;;;;;;;;;;;;;;;23.71;50.67;101240.30;107526;1254;97896;-61
2023/07/10 07:54:55;;;;;;;;;;;;;;;23.77;50.33;101239.87;107658;1255;97815;-62
2023/07/10 07:57:23;;;;;;;;;;;;;;;23.87;50.62;101237.58;107635;1254;112894;-62
2023/07/10 07:59:51;;;;;;;;;;;;;;;23.98;49.11;101238.26;107568;1254;108847;-61
2023/07/10 08:02:20;;;;;;;;;;;;;;;24.11;46.99;101235.58;106779;1256;1018152;-62
2023/07/10 08:04:48;;;;;;;;;;;;;;;24.18;48.01;101236.65;107627;1256;97902;-61
2023/07/10 08:07:16;;;;;;;;;;;;;;;24.23;47.34;101232.33;107644;1255;97693;-61
2023/07/10 08:09:44;;;;;;;;;;;;;;;24.31;46.12;101221.59;107563;1257;111888;-62
2023/07/10 08:12:12;;;;;;;;;;;;;;;24.40;46.70;101224.73;107630;1256;109264;-62
2023/07/10 08:14:41;;;;;;;;;;;;;;;24.53;46.44;101229.16;107571;1254;106959;-61
2023/07/10 08:17:12;;;;;;;;;;;;;;;24.63;44.58;101227.10;107624;1256;97706;-64
2023/07/10 08:19:40;;;;;;;;;;;;;;;24.70;44.03;101221.83;107660;1256;97712;-62
2023/07/10 08:22:08;;;;;;;;;;;;;;;24.85;43.37;101219.89;107637;1256;111338;-61
2023/07/10 08:24:36;;;;;;;;;;;;;;;25.00;42.87;101224.03;107634;1254;109055;-61
2023/07/10 08:27:04;;;;;;;;;;;;;;;25.18;41.25;101216.41;107588;1256;108543;-62
2023/07/10 08:29:35;;;;;;;;;;;;;;;25.37;39.63;101219.80;107643;1254;97821;-62
2023/07/10 08:32:04;;;;;;;;;;;;;;;25.49;40.24;101217.52;107593;1254;97894;-62
2023/07/10 08:34:32;;;;;;;;;;;;;;;25.62;39.99;101214.02;107637;1256;111768;-62
2023/07/10 08:37:01;;;;;;;;;;;;;;;25.76;39.21;101217.73;107637;1256;109315;-61
2023/07/10 08:39:30;;;;;;;;;;;;;;;25.95;38.70;101213.52;107638;1254;106155;-61
2023/07/10 08:42:11;;;;;;;;;;;;;;;26.11;37.69;101210.02;107635;1252;97697;-62
2023/07/10 08:44:39;;;;;;;;;;;;;;;26.24;37.47;101212.88;107610;1254;97937;-62
2023/07/10 08:47:24;;;;;;;;;;;;;;;26.33;37.36;101210.48;107658;1251;111398;-61
2023/07/10 08:50:02;;;;;;;;;;;;;;;26.47;36.52;101210.27;107533;1251;108058;-60
2023/07/10 08:52:40;;;;;;;;;;;;;;;26.54;37.06;101211.84;107478;1256;107897;-62
2023/07/10 08:55:12;;;;;;;;;;;;;;;26.70;37.11;101213.19;107629;1255;97829;-60
2023/07/10 08:57:48;;;;;;;;;;;;;;;26.84;36.78;101212.86;107599;1254;97898;-62
2023/07/10 09:00:16;;;;;;;;;;;;;;;26.89;36.20;101214.31;107634;1257;112280;-61
2023/07/10 09:03:02;;;;;;;;;;;;;;;26.85;36.80;101222.14;107636;1254;108803;-63
2023/07/10 09:05:32;;;;;;;;;;;;;;;26.85;35.84;101223.71;107615;1254;108668;-61
2023/07/10 09:08:05;;;;;;;;;;;;;;;26.92;36.43;101228.49;107615;1256;97798;-63
2023/07/10 09:10:53;;;;;;;;;;;;;;;27.01;36.24;101224.20;107626;1254;97901;-64
2023/07/10 09:13:40;;;;;;;;;;;;;;;27.14;36.26;101226.84;107555;1254;112028;-62
2023/07/10 09:16:16;;;;;;;;;;;;;;;27.06;36.23;101229.69;107577;1257;108832;-61
2023/07/10 09:19:05;;;;;;;;;;;;;;;26.95;36.21;101235.55;107574;1255;107809;-62
2023/07/10 09:21:36;;;;;;;;;;;;;;;27.02;36.90;101233.33;107607;1255;98508;-63
2023/07/10 09:24:04;;;;;;;;;;;;;;;27.32;36.80;101234.17;107731;1257;97704;-62
2023/07/10 09:26:38;;;;;;;;;;;;;;;27.66;35.60;101236.29;107615;1254;112145;-61
2023/07/10 09:29:14;;;;;;;;;;;;;;;28.02;33.83;101228.48;107627;1251;108779;-61
2023/07/10 09:31:50;;;;;;;;;;;;;;;28.32;33.83;101224.09;107638;1254;107548;-61
2023/07/10 09:34:22;;;;;;;;;;;;;;;28.66;33.65;101227.26;107618;1256;97854;-60
2023/07/10 09:36:51;;;;;;;;;;;;;;;28.94;32.76;101220.21;107574;1257;97880;-61
2023/07/10 09:39:19;;;;;;;;;;;;;;;29.04;32.70;101219.34;107659;1254;112403;-61
2023/07/10 09:41:47;;;;;;;;;;;;;;;29.00;31.52;101211.76;107632;1254;109481;-63
2023/07/10 09:44:17;;;;;;;;;;;;;;;29.09;32.04;101214.40;107524;1256;108613;-63
2023/07/10 09:47:01;;;;;;;;;;;;;;;29.33;31.50;101206.39;107621;1254;97717;-60
2023/07/10 09:49:34;;;;;;;;;;;;;;;29.17;31.54;101216.30;107626;1257;97733;-61
2023/07/10 09:52:12;;;;;;;;;;;;;;;28.69;32.24;101211.54;107626;1251;111804;-60
2023/07/10 09:54:40;;;;;;;;;;;;;;;28.70;33.26;101210.08;107573;1251;108708;-62
2023/07/10 09:57:13;;;;;;;;;;;;;;;29.16;32.75;101204.00;107526;1250;108342;-61
2023/07/10 09:59:52;;;;;;;;;;;;;;;29.41;32.22;101196.73;107542;1251;97949;-62
2023/07/10 10:02:22;;;;;;;;;;;;;;;29.56;31.78;101197.23;107537;1251;98013;-62
2023/07/10 10:05:04;;;;;;;;;;;;;;;29.93;31.36;101193.86;107567;1254;110572;-61
2023/07/10 10:07:40;;;;;;;;;;;;;;;30.29;30.82;101201.27;107608;1251;108672;-60
2023/07/10 10:10:28;;;;;;;;;;;;;;;30.53;29.38;101198.23;107522;1252;108554;-62
2023/07/10 10:13:05;;;;;;;;;;;;;;;30.95;29.11;101194.17;107555;1254;98026;-63
2023/07/10 10:15:52;;;;;;;;;;;;;;;31.32;28.65;101187.52;107593;1254;97665;-61
2023/07/10 10:18:43;;;;;;;;;;;;;;;31.47;27.16;101187.04;107602;1251;110989;-61
2023/07/10 10:21:13;;;;;;;;;;;;;;;31.68;27.92;101174.55;107594;1251;110012;-62
2023/07/10 10:23:44;;;;;;;;;;;;;;;32.19;28.22;101171.09;107590;1256;107634;-61
2023/07/10 10:26:15;;;;;;;;;;;;;;;32.86;27.31;101173.73;107609;1254;97804;-61
2023/07/10 10:28:50;;;;;;;;;;;;;;;32.91;25.82;101169.63;107636;1256;99628;-60
2023/07/10 10:31:23;;;;;;;;;;;;;;;33.36;25.84;101170.14;107680;1253;112274;-61
2023/07/10 10:33:58;;;;;;;;;;;;;;;33.82;25.46;101165.88;107581;1254;110229;-60
2023/07/10 10:36:35;;;;;;;;;;;;;;;34.30;25.20;101167.82;107558;1254;108635;-63
2023/07/10 10:39:23;;;;;;;;;;;;;;;34.69;24.77;101169.73;107629;1251;98473;-60
2023/07/10 10:41:56;;;;;;;;;;;;;;;35.03;24.47;101168.92;107360;1257;97851;-62
2023/07/10 10:44:40;;;;;;;;;;;;;;;34.71;25.01;101164.91;107599;1251;112384;-61
2023/07/10 10:47:11;;;;;;;;;;;;;;;34.17;24.24;101157.72;107641;1254;109557;-61
2023/07/10 10:49:42;;;;;;;;;;;;;;;34.15;24.45;101146.45;107609;1253;108448;-62
2023/07/10 10:52:18;;;;;;;;;;;;;;;34.24;24.65;101149.35;107614;1251;97828;-62
2023/07/10 10:55:04;;;;;;;;;;;;;;;34.19;24.05;101142.08;107577;1255;97800;-60
2023/07/10 10:57:32;;;;;;;;;;;;;;;34.48;23.46;101143.38;107549;1254;111410;-61
2023/07/10 11:00:13;;;;;;;;;;;;;;;34.99;23.70;101139.00;107650;1255;109143;-62
2023/07/10 11:02:48;;;;;;;;;;;;;;;35.36;22.14;101133.95;107580;1254;108591;-60
2023/07/10 11:05:23;;;;;;;;;;;;;;;35.80;23.07;101129.37;107660;1253;98056;-65
2023/07/10 11:07:54;;;;;;;;;;;;;;;35.92;22.12;101128.33;107622;1255;97820;-62
2023/07/10 11:10:37;;;;;;;;;;;;;;;35.99;22.68;101127.52;107657;1253;111795;-62
2023/07/10 11:13:14;;;;;;;;;;;;;;;36.16;21.97;101123.55;107622;1254;109625;-63
2023/07/10 11:15:42;;;;;;;;;;;;;;;35.95;22.49;101127.48;107613;1252;107959;-62
2023/07/10 11:18:14;;;;;;;;;;;;;;;36.08;23.21;101125.64;107697;1254;97851;-61
2023/07/10 11:20:44;;;;;;;;;;;;;;;36.82;22.74;101114.88;107654;1254;97908;-61
2023/07/10 11:23:30;;;;;;;;;;;;;;;37.05;21.40;101117.70;107654;1254;111504;-62
2023/07/10 11:26:29;;;;;;;;;;;;;;;36.90;20.96;101120.14;107632;1251;108985;-62
2023/07/10 11:28:59;;;;;;;;;;;;;;;36.99;21.25;101115.84;107449;1251;108351;-62
2023/07/10 11:31:30;;;;;;;;;;;;;;;37.41;20.82;101113.02;107514;1251;97828;-62
2023/07/10 11:34:19;;;;;;;;;;;;;;;37.55;19.92;101107.98;107648;1255;97775;-62
2023/07/10 11:36:47;;;;;;;;;;;;;;;37.99;20.03;101105.00;107559;1251;111786;-62
2023/07/10 11:39:18;;;;;;;;;;;;;;;38.40;20.14;101101.34;107485;1251;108976;-62
2023/07/10 11:41:46;;;;;;;;;;;;;;;39.05;19.76;101098.87;107495;1250;108370;-62
2023/07/10 11:44:14;;;;;;;;;;;;;;;39.49;19.41;101101.02;107604;1251;97899;-61
2023/07/10 11:46:57;;;;;;;;;;;;;;;39.78;19.37;101096.43;107662;1255;97928;-62
2023/07/10 11:49:28;;;;;;;;;;;;;;;39.57;19.61;101096.45;107683;1251;112052;-62
2023/07/10 11:52:08;;;;;;;;;;;;;;;40.00;18.46;101093.75;107646;1251;109844;-64
2023/07/10 11:54:36;;;;;;;;;;;;;;;40.26;18.09;101091.61;107674;1251;109273;-62
2023/07/10 11:57:09;;;;;;;;;;;;;;;40.50;17.67;101093.08;107591;1251;97688;-62
2023/07/10 11:59:56;;;;;;;;;;;;;;;40.74;17.22;101092.76;107665;1254;97993;-62
2023/07/10 12:02:27;;;;;;;;;;;;;;;41.08;16.57;101089.27;107642;1253;113073;-61
2023/07/10 12:04:57;;;;;;;;;;;;;;;40.76;17.37;101087.05;107624;1251;110462;-61
2023/07/10 12:07:26;;;;;;;;;;;;;;;40.72;17.85;101092.69;107608;1253;108547;-61
2023/07/10 12:09:58;;;;;;;;;;;;;;;40.08;17.70;101086.24;107664;1251;97786;-61
2023/07/10 12:12:30;;;;;;;;;;;;;;;39.43;17.93;101088.67;107646;1254;97692;-59
2023/07/10 12:15:02;;;;;;;;;;;;;;;39.06;18.66;101088.41;107650;1254;110571;-62
2023/07/10 12:17:31;;;;;;;;;;;;;;;39.55;18.98;101078.23;107639;1251;109482;-62
2023/07/10 12:20:04;;;;;;;;;;;;;;;40.43;18.03;101070.88;107619;1253;106767;-62
2023/07/10 12:22:37;;;;;;;;;;;;;;;41.16;17.93;101067.59;107613;1251;97727;-61
2023/07/10 12:25:15;;;;;;;;;;;;;;;41.64;16.29;101065.55;107540;1251;97688;-62
2023/07/10 12:27:43;;;;;;;;;;;;;;;41.76;16.47;101060.07;107460;1251;111582;-62
2023/07/10 12:30:19;;;;;;;;;;;;;;;42.00;16.97;101061.50;107650;1254;110082;-62
2023/07/10 12:32:49;;;;;;;;;;;;;;;42.42;16.90;101061.52;107696;1251;107646;-62
2023/07/10 12:35:29;;;;;;;;;;;;;;;42.84;16.66;101060.88;107522;1251;97871;-62
2023/07/10 12:37:59;;;;;;;;;;;;;;;42.41;15.92;101056.06;107691;1251;97698;-62
2023/07/10 12:40:28;;;;;;;;;;;;;;;41.72;16.49;101061.92;107515;1251;111126;-63